sensor_id;sensor_type;location;lat;lon;timestamp;temperature;humidity
66213;SHT31;53015;50.046;8.238;2022-09-17T00:00:31;10.03;84.10
66213;SHT31;53015;50.046;8.238;2022-09-17T00:02:57;10.04;84.18
66213;SHT31;53015;50.046;8.238;2022-09-17T00:05:23;10.00;84.88
66213;SHT31;53015;50.046;8.238;2022-09-17T00:07:52;9.94;84.50
66213;SHT31;53015;50.046;8.238;2022-09-17T00:10:18;9.96;84.62
66213;SHT31;53015;50.046;8.238;2022-09-17T00:12:45;9.90;85.19
66213;SHT31;53015;50.046;8.238;2022-09-17T00:15:12;9.80;85.57
66213;SHT31;53015;50.046;8.238;2022-09-17T00:17:38;9.70;85.67
66213;SHT31;53015;50.046;8.238;2022-09-17T00:20:05;9.59;86.03
66213;SHT31;53015;50.046;8.238;2022-09-17T00:22:35;9.65;86.01
66213;SHT31;53015;50.046;8.238;2022-09-17T00:25:00;9.75;85.96
66213;SHT31;53015;50.046;8.238;2022-09-17T00:27:26;9.69;85.66
66213;SHT31;53015;50.046;8.238;2022-09-17T00:29:51;9.66;85.85
66213;SHT31;53015;50.046;8.238;2022-09-17T00:32:16;9.65;85.99
66213;SHT31;53015;50.046;8.238;2022-09-17T00:34:42;9.66;85.58
66213;SHT31;53015;50.046;8.238;2022-09-17T00:37:08;9.62;85.37
66213;SHT31;53015;50.046;8.238;2022-09-17T00:39:33;9.62;85.37
66213;SHT31;53015;50.046;8.238;2022-09-17T00:41:59;9.53;85.57
66213;SHT31;53015;50.046;8.238;2022-09-17T00:47:02;9.59;85.92
66213;SHT31;53015;50.046;8.238;2022-09-17T00:49:29;9.68;85.80
66213;SHT31;53015;50.046;8.238;2022-09-17T00:52:07;9.68;85.67
66213;SHT31;53015;50.046;8.238;2022-09-17T00:54:36;9.75;85.87
66213;SHT31;53015;50.046;8.238;2022-09-17T00:57:03;9.76;85.77
66213;SHT31;53015;50.046;8.238;2022-09-17T00:59:28;9.85;85.32
66213;SHT31;53015;50.046;8.238;2022-09-17T01:01:53;9.91;85.11
66213;SHT31;53015;50.046;8.238;2022-09-17T01:04:23;9.83;84.96
66213;SHT31;53015;50.046;8.238;2022-09-17T01:10:21;9.90;85.40
66213;SHT31;53015;50.046;8.238;2022-09-17T01:18:54;9.66;86.41
66213;SHT31;53015;50.046;8.238;2022-09-17T01:21:31;9.70;86.56
66213;SHT31;53015;50.046;8.238;2022-09-17T01:35:24;9.96;86.25
66213;SHT31;53015;50.046;8.238;2022-09-17T01:38:26;9.82;86.55
66213;SHT31;53015;50.046;8.238;2022-09-17T01:43:52;9.72;85.95
66213;SHT31;53015;50.046;8.238;2022-09-17T01:46:23;9.68;85.98
66213;SHT31;53015;50.046;8.238;2022-09-17T01:48:59;9.85;86.01
66213;SHT31;53015;50.046;8.238;2022-09-17T01:51:29;9.87;85.05
66213;SHT31;53015;50.046;8.238;2022-09-17T01:54:12;9.83;84.78
66213;SHT31;53015;50.046;8.238;2022-09-17T01:56:43;9.98;85.18
66213;SHT31;53015;50.046;8.238;2022-09-17T01:59:17;10.03;84.22
66213;SHT31;53015;50.046;8.238;2022-09-17T02:01:46;10.01;84.70
66213;SHT31;53015;50.046;8.238;2022-09-17T02:04:30;10.11;84.16
66213;SHT31;53015;50.046;8.238;2022-09-17T02:07:02;10.16;83.16
66213;SHT31;53015;50.046;8.238;2022-09-17T02:09:34;10.24;83.44
66213;SHT31;53015;50.046;8.238;2022-09-17T02:12:02;10.35;83.79
66213;SHT31;53015;50.046;8.238;2022-09-17T02:14:37;10.34;83.89
66213;SHT31;53015;50.046;8.238;2022-09-17T02:17:15;10.44;83.01
66213;SHT31;53015;50.046;8.238;2022-09-17T02:19:44;10.38;83.39
66213;SHT31;53015;50.046;8.238;2022-09-17T02:30:33;10.33;83.37
66213;SHT31;53015;50.046;8.238;2022-09-17T02:33:01;10.40;82.90
66213;SHT31;53015;50.046;8.238;2022-09-17T02:35:30;10.40;83.22
66213;SHT31;53015;50.046;8.238;2022-09-17T02:37:55;10.33;82.74
66213;SHT31;53015;50.046;8.238;2022-09-17T02:40:23;10.42;83.18
66213;SHT31;53015;50.046;8.238;2022-09-17T02:43:10;10.31;83.34
66213;SHT31;53015;50.046;8.238;2022-09-17T02:51:52;10.59;82.69
66213;SHT31;53015;50.046;8.238;2022-09-17T02:54:27;10.62;82.03
66213;SHT31;53015;50.046;8.238;2022-09-17T02:57:09;10.62;81.99
66213;SHT31;53015;50.046;8.238;2022-09-17T02:59:45;10.55;82.78
66213;SHT31;53015;50.046;8.238;2022-09-17T03:02:32;10.56;82.69
66213;SHT31;53015;50.046;8.238;2022-09-17T03:05:00;10.56;83.17
66213;SHT31;53015;50.046;8.238;2022-09-17T03:07:27;10.62;82.70
66213;SHT31;53015;50.046;8.238;2022-09-17T03:09:53;10.59;82.04
66213;SHT31;53015;50.046;8.238;2022-09-17T03:12:19;10.63;81.92
66213;SHT31;53015;50.046;8.238;2022-09-17T03:14:44;10.65;82.01
66213;SHT31;53015;50.046;8.238;2022-09-17T03:17:10;10.72;82.17
66213;SHT31;53015;50.046;8.238;2022-09-17T03:19:36;10.71;82.10
66213;SHT31;53015;50.046;8.238;2022-09-17T03:22:01;10.71;82.40
66213;SHT31;53015;50.046;8.238;2022-09-17T03:24:27;10.75;82.58
66213;SHT31;53015;50.046;8.238;2022-09-17T03:26:52;10.80;81.69
66213;SHT31;53015;50.046;8.238;2022-09-17T03:29:21;10.76;82.38
66213;SHT31;53015;50.046;8.238;2022-09-17T03:31:46;10.73;82.55
66213;SHT31;53015;50.046;8.238;2022-09-17T03:34:12;10.75;82.21
66213;SHT31;53015;50.046;8.238;2022-09-17T03:36:37;10.69;82.48
66213;SHT31;53015;50.046;8.238;2022-09-17T03:39:03;10.71;82.57
66213;SHT31;53015;50.046;8.238;2022-09-17T03:41:28;10.71;82.56
66213;SHT31;53015;50.046;8.238;2022-09-17T03:43:54;10.65;82.32
66213;SHT31;53015;50.046;8.238;2022-09-17T03:46:19;10.69;82.80
66213;SHT31;53015;50.046;8.238;2022-09-17T03:48:45;10.72;82.92
66213;SHT31;53015;50.046;8.238;2022-09-17T03:51:10;10.68;83.32
66213;SHT31;53015;50.046;8.238;2022-09-17T03:53:36;10.69;83.49
66213;SHT31;53015;50.046;8.238;2022-09-17T03:56:03;10.73;83.11
66213;SHT31;53015;50.046;8.238;2022-09-17T03:58:30;10.83;83.56
66213;SHT31;53015;50.046;8.238;2022-09-17T04:00:56;10.93;83.54
66213;SHT31;53015;50.046;8.238;2022-09-17T04:03:26;10.83;83.32
66213;SHT31;53015;50.046;8.238;2022-09-17T04:05:52;10.90;83.85
66213;SHT31;53015;50.046;8.238;2022-09-17T04:08:18;10.95;83.26
66213;SHT31;53015;50.046;8.238;2022-09-17T04:10:44;10.95;83.36
66213;SHT31;53015;50.046;8.238;2022-09-17T04:13:11;10.86;83.63
66213;SHT31;53015;50.046;8.238;2022-09-17T04:15:38;10.84;84.88
66213;SHT31;53015;50.046;8.238;2022-09-17T04:18:04;10.83;84.75
66213;SHT31;53015;50.046;8.238;2022-09-17T04:20:30;10.86;84.72
66213;SHT31;53015;50.046;8.238;2022-09-17T04:22:55;10.79;84.84
66213;SHT31;53015;50.046;8.238;2022-09-17T04:25:21;10.73;85.48
66213;SHT31;53015;50.046;8.238;2022-09-17T04:27:47;10.72;85.83
66213;SHT31;53015;50.046;8.238;2022-09-17T04:30:13;10.77;86.20
66213;SHT31;53015;50.046;8.238;2022-09-17T04:32:40;10.76;85.17
66213;SHT31;53015;50.046;8.238;2022-09-17T04:35:07;10.69;86.31
66213;SHT31;53015;50.046;8.238;2022-09-17T04:37:33;10.79;86.73
66213;SHT31;53015;50.046;8.238;2022-09-17T04:39:58;10.69;85.77
66213;SHT31;53015;50.046;8.238;2022-09-17T04:42:24;10.66;85.86
66213;SHT31;53015;50.046;8.238;2022-09-17T04:44:49;10.65;86.28
66213;SHT31;53015;50.046;8.238;2022-09-17T04:47:15;10.65;86.16
66213;SHT31;53015;50.046;8.238;2022-09-17T04:49:40;10.65;86.73
66213;SHT31;53015;50.046;8.238;2022-09-17T04:52:05;10.63;87.07
66213;SHT31;53015;50.046;8.238;2022-09-17T04:54:31;10.56;86.40
66213;SHT31;53015;50.046;8.238;2022-09-17T04:56:56;10.61;86.60
66213;SHT31;53015;50.046;8.238;2022-09-17T04:59:22;10.62;86.49
66213;SHT31;53015;50.046;8.238;2022-09-17T05:01:47;10.61;86.47
66213;SHT31;53015;50.046;8.238;2022-09-17T05:04:14;10.63;86.55
66213;SHT31;53015;50.046;8.238;2022-09-17T05:06:41;10.66;86.23
66213;SHT31;53015;50.046;8.238;2022-09-17T05:09:06;10.65;86.11
66213;SHT31;53015;50.046;8.238;2022-09-17T05:11:32;10.72;86.12
66213;SHT31;53015;50.046;8.238;2022-09-17T05:13:57;10.69;86.62
66213;SHT31;53015;50.046;8.238;2022-09-17T05:16:23;10.75;85.50
66213;SHT31;53015;50.046;8.238;2022-09-17T05:18:49;10.80;85.38
66213;SHT31;53015;50.046;8.238;2022-09-17T05:21:17;10.77;85.43
66213;SHT31;53015;50.046;8.238;2022-09-17T05:23:42;10.79;85.35
66213;SHT31;53015;50.046;8.238;2022-09-17T05:26:08;10.83;85.16
66213;SHT31;53015;50.046;8.238;2022-09-17T05:28:33;10.92;85.40
66213;SHT31;53015;50.046;8.238;2022-09-17T05:31:00;10.86;85.25
66213;SHT31;53015;50.046;8.238;2022-09-17T05:33:25;10.88;84.62
66213;SHT31;53015;50.046;8.238;2022-09-17T05:35:51;10.90;84.61
66213;SHT31;53015;50.046;8.238;2022-09-17T05:38:16;10.92;84.93
66213;SHT31;53015;50.046;8.238;2022-09-17T05:40:43;11.00;84.05
66213;SHT31;53015;50.046;8.238;2022-09-17T05:43:09;10.97;84.10
66213;SHT31;53015;50.046;8.238;2022-09-17T05:45:36;11.07;84.08
66213;SHT31;53015;50.046;8.238;2022-09-17T05:48:03;11.18;83.96
66213;SHT31;53015;50.046;8.238;2022-09-17T05:50:30;11.18;83.43
66213;SHT31;53015;50.046;8.238;2022-09-17T05:52:55;11.24;83.74
66213;SHT31;53015;50.046;8.238;2022-09-17T05:55:22;11.32;83.03
66213;SHT31;53015;50.046;8.238;2022-09-17T05:57:48;11.54;82.94
66213;SHT31;53015;50.046;8.238;2022-09-17T06:00:14;11.65;82.19
66213;SHT31;53015;50.046;8.238;2022-09-17T06:02:40;11.61;82.92
66213;SHT31;53015;50.046;8.238;2022-09-17T06:05:06;11.58;83.05
66213;SHT31;53015;50.046;8.238;2022-09-17T06:07:36;11.61;82.46
66213;SHT31;53015;50.046;8.238;2022-09-17T06:10:03;11.55;82.47
66213;SHT31;53015;50.046;8.238;2022-09-17T06:12:28;11.51;82.83
66213;SHT31;53015;50.046;8.238;2022-09-17T06:14:54;11.58;82.98
66213;SHT31;53015;50.046;8.238;2022-09-17T06:17:19;11.66;82.37
66213;SHT31;53015;50.046;8.238;2022-09-17T06:19:45;11.73;82.32
66213;SHT31;53015;50.046;8.238;2022-09-17T06:22:10;11.79;82.41
66213;SHT31;53015;50.046;8.238;2022-09-17T06:24:35;11.89;81.54
66213;SHT31;53015;50.046;8.238;2022-09-17T06:27:01;11.87;81.51
66213;SHT31;53015;50.046;8.238;2022-09-17T06:29:26;12.00;81.31
66213;SHT31;53015;50.046;8.238;2022-09-17T06:31:52;12.10;81.32
66213;SHT31;53015;50.046;8.238;2022-09-17T06:34:18;12.14;80.77
66213;SHT31;53015;50.046;8.238;2022-09-17T06:36:44;12.16;80.24
66213;SHT31;53015;50.046;8.238;2022-09-17T06:39:09;12.24;80.02
66213;SHT31;53015;50.046;8.238;2022-09-17T06:41:40;12.24;79.75
66213;SHT31;53015;50.046;8.238;2022-09-17T06:44:07;12.29;79.30
66213;SHT31;53015;50.046;8.238;2022-09-17T06:46:32;12.31;79.46
66213;SHT31;53015;50.046;8.238;2022-09-17T06:48:57;12.29;79.23
66213;SHT31;53015;50.046;8.238;2022-09-17T06:51:23;12.26;79.25
66213;SHT31;53015;50.046;8.238;2022-09-17T06:53:48;12.31;79.37
66213;SHT31;53015;50.046;8.238;2022-09-17T06:56:14;12.31;79.57
66213;SHT31;53015;50.046;8.238;2022-09-17T06:58:40;12.34;80.08
66213;SHT31;53015;50.046;8.238;2022-09-17T07:01:10;12.37;79.42
66213;SHT31;53015;50.046;8.238;2022-09-17T07:03:36;12.49;79.57
66213;SHT31;53015;50.046;8.238;2022-09-17T07:06:02;12.54;78.87
66213;SHT31;53015;50.046;8.238;2022-09-17T07:08:31;12.59;79.44
66213;SHT31;53015;50.046;8.238;2022-09-17T07:10:56;12.48;79.61
66213;SHT31;53015;50.046;8.238;2022-09-17T07:13:22;12.62;79.06
66213;SHT31;53015;50.046;8.238;2022-09-17T07:15:58;12.76;78.63
66213;SHT31;53015;50.046;8.238;2022-09-17T07:18:24;12.79;78.78
66213;SHT31;53015;50.046;8.238;2022-09-17T07:20:55;12.79;78.44
66213;SHT31;53015;50.046;8.238;2022-09-17T07:23:25;12.82;77.86
66213;SHT31;53015;50.046;8.238;2022-09-17T07:25:52;12.96;77.94
66213;SHT31;53015;50.046;8.238;2022-09-17T07:28:18;13.03;77.24
66213;SHT31;53015;50.046;8.238;2022-09-17T07:30:43;13.10;77.54
66213;SHT31;53015;50.046;8.238;2022-09-17T07:33:08;13.03;76.97
66213;SHT31;53015;50.046;8.238;2022-09-17T07:35:34;13.06;78.06
66213;SHT31;53015;50.046;8.238;2022-09-17T07:37:59;13.14;76.68
66213;SHT31;53015;50.046;8.238;2022-09-17T07:40:24;13.20;76.55
66213;SHT31;53015;50.046;8.238;2022-09-17T07:42:50;13.13;74.86
66213;SHT31;53015;50.046;8.238;2022-09-17T07:45:15;13.02;75.27
66213;SHT31;53015;50.046;8.238;2022-09-17T07:47:41;13.07;75.09
66213;SHT31;53015;50.046;8.238;2022-09-17T07:50:09;13.12;75.44
66213;SHT31;53015;50.046;8.238;2022-09-17T07:52:35;13.19;75.48
66213;SHT31;53015;50.046;8.238;2022-09-17T07:55:00;13.28;75.62
66213;SHT31;53015;50.046;8.238;2022-09-17T07:57:26;13.23;75.27
66213;SHT31;53015;50.046;8.238;2022-09-17T07:59:51;13.23;74.56
66213;SHT31;53015;50.046;8.238;2022-09-17T08:02:17;13.41;74.82
66213;SHT31;53015;50.046;8.238;2022-09-17T08:04:42;13.28;73.57
66213;SHT31;53015;50.046;8.238;2022-09-17T08:07:10;13.28;74.59
66213;SHT31;53015;50.046;8.238;2022-09-17T08:09:37;13.43;74.58
66213;SHT31;53015;50.046;8.238;2022-09-17T08:12:02;13.51;73.27
66213;SHT31;53015;50.046;8.238;2022-09-17T08:14:28;13.69;73.01
66213;SHT31;53015;50.046;8.238;2022-09-17T08:16:53;13.79;73.09
66213;SHT31;53015;50.046;8.238;2022-09-17T08:19:19;13.78;71.84
66213;SHT31;53015;50.046;8.238;2022-09-17T08:21:44;13.92;72.16
66213;SHT31;53015;50.046;8.238;2022-09-17T08:24:09;13.96;70.95
66213;SHT31;53015;50.046;8.238;2022-09-17T08:26:35;13.89;71.18
66213;SHT31;53015;50.046;8.238;2022-09-17T08:29:00;13.75;70.81
66213;SHT31;53015;50.046;8.238;2022-09-17T08:31:26;13.61;71.73
66213;SHT31;53015;50.046;8.238;2022-09-17T08:33:54;13.68;70.13
66213;SHT31;53015;50.046;8.238;2022-09-17T08:36:20;13.83;71.26
66213;SHT31;53015;50.046;8.238;2022-09-17T08:38:50;14.02;69.14
66213;SHT31;53015;50.046;8.238;2022-09-17T08:41:27;14.02;69.11
66213;SHT31;53015;50.046;8.238;2022-09-17T08:46:40;14.26;67.75
66213;SHT31;53015;50.046;8.238;2022-09-17T08:49:15;14.45;67.77
66213;SHT31;53015;50.046;8.238;2022-09-17T08:54:27;14.32;67.59
66213;SHT31;53015;50.046;8.238;2022-09-17T08:57:15;14.33;66.33
66213;SHT31;53015;50.046;8.238;2022-09-17T08:59:56;14.47;66.34
66213;SHT31;53015;50.046;8.238;2022-09-17T09:05:10;14.92;66.15
66213;SHT31;53015;50.046;8.238;2022-09-17T09:07:43;15.26;66.05
66213;SHT31;53015;50.046;8.238;2022-09-17T09:10:16;15.06;63.03
66213;SHT31;53015;50.046;8.238;2022-09-17T09:12:44;15.35;63.93
66213;SHT31;53015;50.046;8.238;2022-09-17T09:15:25;15.33;61.96
66213;SHT31;53015;50.046;8.238;2022-09-17T09:17:52;15.42;62.22
66213;SHT31;53015;50.046;8.238;2022-09-17T09:20:27;15.57;62.23
66213;SHT31;53015;50.046;8.238;2022-09-17T09:22:58;15.23;63.13
66213;SHT31;53015;50.046;8.238;2022-09-17T09:25:32;14.84;66.51
66213;SHT31;53015;50.046;8.238;2022-09-17T09:33:31;12.34;79.81
66213;SHT31;53015;50.046;8.238;2022-09-17T09:35:59;11.71;82.08
66213;SHT31;53015;50.046;8.238;2022-09-17T09:38:34;11.44;81.60
66213;SHT31;53015;50.046;8.238;2022-09-17T09:41:13;11.39;81.03
66213;SHT31;53015;50.046;8.238;2022-09-17T09:43:45;11.61;81.77
66213;SHT31;53015;50.046;8.238;2022-09-17T09:54:22;12.23;81.93
66213;SHT31;53015;50.046;8.238;2022-09-17T09:59:49;12.26;79.86
66213;SHT31;53015;50.046;8.238;2022-09-17T10:02:14;12.37;81.44
66213;SHT31;53015;50.046;8.238;2022-09-17T10:04:40;12.51;79.96
66213;SHT31;53015;50.046;8.238;2022-09-17T10:07:08;12.55;80.78
66213;SHT31;53015;50.046;8.238;2022-09-17T10:09:36;12.62;81.20
66213;SHT31;53015;50.046;8.238;2022-09-17T10:12:14;12.74;80.20
66213;SHT31;53015;50.046;8.238;2022-09-17T10:14:42;12.89;81.12
66213;SHT31;53015;50.046;8.238;2022-09-17T10:17:20;12.88;79.46
66213;SHT31;53015;50.046;8.238;2022-09-17T10:22:37;12.92;78.88
66213;SHT31;53015;50.046;8.238;2022-09-17T10:25:11;12.92;77.82
66213;SHT31;53015;50.046;8.238;2022-09-17T10:27:43;12.84;76.16
66213;SHT31;53015;50.046;8.238;2022-09-17T10:32:35;12.79;79.24
66213;SHT31;53015;50.046;8.238;2022-09-17T10:35:05;12.82;77.73
66213;SHT31;53015;50.046;8.238;2022-09-17T10:37:34;12.88;77.60
66213;SHT31;53015;50.046;8.238;2022-09-17T10:40:00;13.04;77.61
66213;SHT31;53015;50.046;8.238;2022-09-17T10:42:25;13.36;76.14
66213;SHT31;53015;50.046;8.238;2022-09-17T10:44:55;13.69;77.88
66213;SHT31;53015;50.046;8.238;2022-09-17T10:47:28;13.90;73.82
66213;SHT31;53015;50.046;8.238;2022-09-17T10:50:04;14.10;74.00
66213;SHT31;53015;50.046;8.238;2022-09-17T10:52:35;14.26;72.90
66213;SHT31;53015;50.046;8.238;2022-09-17T11:09:15;14.54;71.40
66213;SHT31;53015;50.046;8.238;2022-09-17T11:17:29;14.53;70.30
66213;SHT31;53015;50.046;8.238;2022-09-17T11:20:16;14.67;70.81
66213;SHT31;53015;50.046;8.238;2022-09-17T11:25:45;15.02;63.93
66213;SHT31;53015;50.046;8.238;2022-09-17T11:28:22;15.08;63.73
66213;SHT31;53015;50.046;8.238;2022-09-17T11:36:26;15.91;61.07
66213;SHT31;53015;50.046;8.238;2022-09-17T11:38:55;16.06;59.23
66213;SHT31;53015;50.046;8.238;2022-09-17T11:41:32;15.88;59.16
66213;SHT31;53015;50.046;8.238;2022-09-17T11:44:12;15.85;60.61
66213;SHT31;53015;50.046;8.238;2022-09-17T11:46:47;15.98;61.02
66213;SHT31;53015;50.046;8.238;2022-09-17T11:49:32;16.18;60.85
66213;SHT31;53015;50.046;8.238;2022-09-17T11:55:20;16.50;60.63
66213;SHT31;53015;50.046;8.238;2022-09-17T11:57:48;16.42;58.05
66213;SHT31;53015;50.046;8.238;2022-09-17T12:00:18;16.43;58.69
66213;SHT31;53015;50.046;8.238;2022-09-17T12:02:56;16.59;58.92
66213;SHT31;53015;50.046;8.238;2022-09-17T12:11:05;17.04;55.06
66213;SHT31;53015;50.046;8.238;2022-09-17T12:16:19;16.57;54.89
66213;SHT31;53015;50.046;8.238;2022-09-17T12:19:00;16.46;54.36
66213;SHT31;53015;50.046;8.238;2022-09-17T12:21:36;16.22;55.67
66213;SHT31;53015;50.046;8.238;2022-09-17T12:24:18;16.09;55.54
66213;SHT31;53015;50.046;8.238;2022-09-17T12:38:16;15.64;59.38
66213;SHT31;53015;50.046;8.238;2022-09-17T12:51:18;15.64;59.62
66213;SHT31;53015;50.046;8.238;2022-09-17T12:59:16;15.33;59.84
66213;SHT31;53015;50.046;8.238;2022-09-17T13:18:49;13.12;71.77
66213;SHT31;53015;50.046;8.238;2022-09-17T13:21:16;13.22;73.41
66213;SHT31;53015;50.046;8.238;2022-09-17T13:23:47;13.41;73.89
66213;SHT31;53015;50.046;8.238;2022-09-17T13:26:16;13.64;74.15
66213;SHT31;53015;50.046;8.238;2022-09-17T13:28:46;13.88;75.58
66213;SHT31;53015;50.046;8.238;2022-09-17T13:31:18;13.86;72.09
66213;SHT31;53015;50.046;8.238;2022-09-17T13:33:58;13.95;70.94
66213;SHT31;53015;50.046;8.238;2022-09-17T13:36:42;14.12;69.56
66213;SHT31;53015;50.046;8.238;2022-09-17T13:42:03;14.60;70.43
66213;SHT31;53015;50.046;8.238;2022-09-17T13:44:34;14.72;66.47
66213;SHT31;53015;50.046;8.238;2022-09-17T13:47:13;14.89;65.63
66213;SHT31;53015;50.046;8.238;2022-09-17T13:49:51;15.05;66.74
66213;SHT31;53015;50.046;8.238;2022-09-17T13:52:44;15.13;64.73
66213;SHT31;53015;50.046;8.238;2022-09-17T13:57:59;15.26;62.22
66213;SHT31;53015;50.046;8.238;2022-09-17T14:01:04;15.30;61.38
66213;SHT31;53015;50.046;8.238;2022-09-17T14:13:56;15.78;63.87
66213;SHT31;53015;50.046;8.238;2022-09-17T14:21:41;15.84;63.01
66213;SHT31;53015;50.046;8.238;2022-09-17T14:35:48;15.81;63.29
66213;SHT31;53015;50.046;8.238;2022-09-17T14:38:32;15.65;63.37
66213;SHT31;53015;50.046;8.238;2022-09-17T14:41:02;15.61;62.47
66213;SHT31;53015;50.046;8.238;2022-09-17T14:46:06;15.67;58.52
66213;SHT31;53015;50.046;8.238;2022-09-17T14:48:34;15.65;58.48
66213;SHT31;53015;50.046;8.238;2022-09-17T14:53:45;15.60;58.28
66213;SHT31;53015;50.046;8.238;2022-09-17T14:56:14;15.37;58.05
66213;SHT31;53015;50.046;8.238;2022-09-17T14:58:45;15.32;60.22
66213;SHT31;53015;50.046;8.238;2022-09-17T15:01:30;15.23;61.69
66213;SHT31;53015;50.046;8.238;2022-09-17T15:07:19;15.09;62.16
66213;SHT31;53015;50.046;8.238;2022-09-17T15:09:45;15.08;62.42
66213;SHT31;53015;50.046;8.238;2022-09-17T15:12:16;14.92;62.33
66213;SHT31;53015;50.046;8.238;2022-09-17T15:14:45;14.96;64.27
66213;SHT31;53015;50.046;8.238;2022-09-17T15:17:14;14.93;61.87
66213;SHT31;53015;50.046;8.238;2022-09-17T15:19:46;14.89;60.60
66213;SHT31;53015;50.046;8.238;2022-09-17T15:24:55;14.71;62.14
66213;SHT31;53015;50.046;8.238;2022-09-17T15:27:34;14.64;63.77
66213;SHT31;53015;50.046;8.238;2022-09-17T15:30:10;14.54;64.45
66213;SHT31;53015;50.046;8.238;2022-09-17T15:32:40;14.59;64.79
66213;SHT31;53015;50.046;8.238;2022-09-17T15:40:44;14.72;64.02
66213;SHT31;53015;50.046;8.238;2022-09-17T15:43:15;14.70;64.40
66213;SHT31;53015;50.046;8.238;2022-09-17T15:45:41;14.75;64.81
66213;SHT31;53015;50.046;8.238;2022-09-17T15:48:36;14.68;64.85
66213;SHT31;53015;50.046;8.238;2022-09-17T15:51:11;14.57;64.77
66213;SHT31;53015;50.046;8.238;2022-09-17T15:53:50;14.57;65.80
66213;SHT31;53015;50.046;8.238;2022-09-17T15:56:19;14.56;66.47
66213;SHT31;53015;50.046;8.238;2022-09-17T15:58:53;14.38;65.72
66213;SHT31;53015;50.046;8.238;2022-09-17T16:08:53;12.81;72.45
66213;SHT31;53015;50.046;8.238;2022-09-17T16:11:21;12.68;72.21
66213;SHT31;53015;50.046;8.238;2022-09-17T16:13:47;12.67;72.77
66213;SHT31;53015;50.046;8.238;2022-09-17T16:16:14;12.61;72.24
66213;SHT31;53015;50.046;8.238;2022-09-17T16:18:41;12.61;72.82
66213;SHT31;53015;50.046;8.238;2022-09-17T16:21:10;12.62;73.40
66213;SHT31;53015;50.046;8.238;2022-09-17T16:23:36;12.55;72.99
66213;SHT31;53015;50.046;8.238;2022-09-17T16:26:02;12.49;71.85
66213;SHT31;53015;50.046;8.238;2022-09-17T16:28:29;12.47;71.74
66213;SHT31;53015;50.046;8.238;2022-09-17T16:30:54;12.58;72.00
66213;SHT31;53015;50.046;8.238;2022-09-17T16:33:20;12.59;72.14
66213;SHT31;53015;50.046;8.238;2022-09-17T16:35:46;12.61;71.82
66213;SHT31;53015;50.046;8.238;2022-09-17T16:38:11;12.54;71.64
66213;SHT31;53015;50.046;8.238;2022-09-17T16:40:44;12.51;71.75
66213;SHT31;53015;50.046;8.238;2022-09-17T16:43:11;12.57;70.95
66213;SHT31;53015;50.046;8.238;2022-09-17T16:45:37;12.57;71.03
66213;SHT31;53015;50.046;8.238;2022-09-17T16:48:03;12.67;71.09
66213;SHT31;53015;50.046;8.238;2022-09-17T16:50:29;12.68;70.86
66213;SHT31;53015;50.046;8.238;2022-09-17T16:52:54;12.71;70.80
66213;SHT31;53015;50.046;8.238;2022-09-17T16:55:20;12.82;70.47
66213;SHT31;53015;50.046;8.238;2022-09-17T16:57:46;13.03;69.46
66213;SHT31;53015;50.046;8.238;2022-09-17T17:00:15;13.16;70.42
66213;SHT31;53015;50.046;8.238;2022-09-17T17:02:47;13.23;69.70
66213;SHT31;53015;50.046;8.238;2022-09-17T17:05:15;13.37;69.85
66213;SHT31;53015;50.046;8.238;2022-09-17T17:07:40;13.40;70.04
66213;SHT31;53015;50.046;8.238;2022-09-17T17:10:06;13.50;70.61
66213;SHT31;53015;50.046;8.238;2022-09-17T17:12:33;13.50;70.84
66213;SHT31;53015;50.046;8.238;2022-09-17T17:14:59;13.54;70.51
66213;SHT31;53015;50.046;8.238;2022-09-17T17:17:25;13.03;70.54
66213;SHT31;53015;50.046;8.238;2022-09-17T17:19:50;12.55;74.40
66213;SHT31;53015;50.046;8.238;2022-09-17T17:22:17;12.10;77.63
66213;SHT31;53015;50.046;8.238;2022-09-17T17:24:42;11.71;79.18
66213;SHT31;53015;50.046;8.238;2022-09-17T17:27:08;11.52;79.71
66213;SHT31;53015;50.046;8.238;2022-09-17T17:29:34;11.34;80.42
66213;SHT31;53015;50.046;8.238;2022-09-17T17:32:03;11.16;80.80
66213;SHT31;53015;50.046;8.238;2022-09-17T17:34:29;11.17;81.61
66213;SHT31;53015;50.046;8.238;2022-09-17T17:36:56;11.32;82.90
66213;SHT31;53015;50.046;8.238;2022-09-17T17:39:21;11.30;84.52
66213;SHT31;53015;50.046;8.238;2022-09-17T17:41:47;11.18;83.78
66213;SHT31;53015;50.046;8.238;2022-09-17T17:44:12;11.17;84.42
66213;SHT31;53015;50.046;8.238;2022-09-17T17:46:38;11.17;82.94
66213;SHT31;53015;50.046;8.238;2022-09-17T17:49:04;11.32;81.95
66213;SHT31;53015;50.046;8.238;2022-09-17T17:51:33;11.44;83.52
66213;SHT31;53015;50.046;8.238;2022-09-17T17:53:59;11.45;83.75
66213;SHT31;53015;50.046;8.238;2022-09-17T17:56:26;11.48;83.05
66213;SHT31;53015;50.046;8.238;2022-09-17T17:58:56;11.61;81.44
66213;SHT31;53015;50.046;8.238;2022-09-17T18:01:27;11.72;82.05
66213;SHT31;53015;50.046;8.238;2022-09-17T18:03:57;11.82;81.63
66213;SHT31;53015;50.046;8.238;2022-09-17T18:06:24;11.82;82.21
66213;SHT31;53015;50.046;8.238;2022-09-17T18:08:51;11.71;76.56
66213;SHT31;53015;50.046;8.238;2022-09-17T18:11:16;11.66;78.66
66213;SHT31;53015;50.046;8.238;2022-09-17T18:13:42;11.51;79.41
66213;SHT31;53015;50.046;8.238;2022-09-17T18:16:11;11.45;80.00
66213;SHT31;53015;50.046;8.238;2022-09-17T18:18:39;11.35;80.96
66213;SHT31;53015;50.046;8.238;2022-09-17T18:21:07;11.34;82.62
66213;SHT31;53015;50.046;8.238;2022-09-17T18:23:35;11.35;83.58
66213;SHT31;53015;50.046;8.238;2022-09-17T18:26:01;11.27;82.23
66213;SHT31;53015;50.046;8.238;2022-09-17T18:28:28;11.38;83.36
66213;SHT31;53015;50.046;8.238;2022-09-17T18:30:55;11.27;82.64
66213;SHT31;53015;50.046;8.238;2022-09-17T18:33:22;11.23;82.59
66213;SHT31;53015;50.046;8.238;2022-09-17T18:35:49;11.17;82.74
66213;SHT31;53015;50.046;8.238;2022-09-17T18:38:15;11.10;83.11
66213;SHT31;53015;50.046;8.238;2022-09-17T18:40:42;11.07;81.98
66213;SHT31;53015;50.046;8.238;2022-09-17T18:43:08;11.06;82.43
66213;SHT31;53015;50.046;8.238;2022-09-17T18:45:34;10.99;81.49
66213;SHT31;53015;50.046;8.238;2022-09-17T18:48:01;10.92;82.18
66213;SHT31;53015;50.046;8.238;2022-09-17T18:50:27;10.89;82.97
66213;SHT31;53015;50.046;8.238;2022-09-17T18:52:52;10.89;82.62
66213;SHT31;53015;50.046;8.238;2022-09-17T18:55:18;10.76;82.84
66213;SHT31;53015;50.046;8.238;2022-09-17T18:57:43;10.80;83.14
66213;SHT31;53015;50.046;8.238;2022-09-17T19:00:09;10.75;82.40
66213;SHT31;53015;50.046;8.238;2022-09-17T19:02:37;10.80;81.47
66213;SHT31;53015;50.046;8.238;2022-09-17T19:05:03;10.80;81.43
66213;SHT31;53015;50.046;8.238;2022-09-17T19:07:29;10.88;81.44
66213;SHT31;53015;50.046;8.238;2022-09-17T19:09:56;10.90;81.78
66213;SHT31;53015;50.046;8.238;2022-09-17T19:12:22;10.88;81.98
66213;SHT31;53015;50.046;8.238;2022-09-17T19:14:47;10.83;81.70